Etusivu
METAR-TAF:

METAR-TAF

Lentoasemat :

Kosrae, Mikronesia

Leveyspiiri: 05-21N, Pituuspiiri: 162-57E, korkeus merenpinnasta: 3 m

Tämänhetkinen sää

Tämä raportti tehtiin 51 minuuttia sitten, kello 17.50 UTC
Tuuli 6 kn idästä/kaakosta
Lämpötila 26°C
Kosteus 89%
Ilmanpaine 1007 hPa
Näkyvyys: 16.1 km
Hajanaisia pilviä 1400 ft:n korkeudessa
Hajonneita pilviä 13000 ft:n korkeudessa
Pilvistä 30000 ft:n korkeudessa

METAR: PTSA 211750Z 11006KT 10SM SCT014 BKN130 OVC300 26/24 A2974

Aika: 05:41 (18:41 UTC)

Sääennuste

Tämä raportti tehtiin 1 tunti ja 21 minuuttia sitten, kello 17.20 UTC
Ennuste voimassa 21. päivästä klo 18 UTC - 22. päivään klo 18 UTC
Tuuli 9 kn kaakosta
Näkyvyys: 10 km
Hajanaisia pilviä 1400 ft:n korkeudessa
Hajonneita pilviä 13000 ft:n korkeudessa
sadekuuroja näköpiirissä

TAF: PTSA 211720Z 2118/2218 14009KT P6SM VCSH SCT014 BKN130

Säähavainnot ja -ennusteet yli 4000 lentoasemalta (METAR- ja TAF-raportit).

Käytössä olevat sääasemat on merkitty karttaan keltaisilla ja punaisilla pisteillä.

Aseta hiiri pisteen päälle nähdäksesi sääaseman nimen.

Klikkaa sitten nähdäksesi säähavainnot ja -ennusteet.

Kartan vaihtaminen: klikkaa mustalla rastilla varustettuja vihreitä pisteitä, niin voit zoomata sisään; viivalla varustettua vihreää pistettä, niin voit zoomata ulos tai vihreitä nuolia, niin pääset viereisille kartoille.


METAR-TAF: